<?xml version="1.0" encoding="utf-8"?>
<gpx xmlns:xsi="http://www.w3.org/2001/XMLSchema-instance" xmlns:xsd="http://www.w3.org/2001/XMLSchema" version="1.1" creator="Shapelink.com" xmlns="http://www.topografix.com/GPX/1/1" xmlns:gpxtpx="http://www.garmin.com/xmlschemas/TrackPointExtension/v1">
  <metadata>
    <name>Övrigt 2.87 km, 2020-07-28</name>
    <desc></desc>
    <author><name>Marian Moron</name></author> 
    <time>2020-07-28T18:52:50Z</time>
  </metadata>
  <trk>
    <name>Övrigt 2.87 km, 2020-07-28</name>
    <trkseg>
      <trkpt lat="51.21656729992" lon="4.4813995988">
        <ele>4.8</ele>
        <time>2020-07-28T18:52:50Z</time>
      </trkpt>
      <trkpt lat="51.2165857401" lon="4.481444358146">
        <ele>0</ele>
        <time>2020-07-28T18:52:59Z</time>
      </trkpt>
      <trkpt lat="51.21693442714" lon="4.48142390631">
        <ele>0</ele>
        <time>2020-07-28T18:53:35Z</time>
      </trkpt>
      <trkpt lat="51.217012127353" lon="4.480727035144">
        <ele>0</ele>
        <time>2020-07-28T18:54:26Z</time>
      </trkpt>
      <trkpt lat="51.217106507547" lon="4.480037875326">
        <ele>0</ele>
        <time>2020-07-28T18:55:26Z</time>
      </trkpt>
      <trkpt lat="51.217109357393" lon="4.479868309489">
        <ele>0</ele>
        <time>2020-07-28T18:55:54Z</time>
      </trkpt>
      <trkpt lat="51.217107345737" lon="4.479684829698">
        <ele>0</ele>
        <time>2020-07-28T18:56:08Z</time>
      </trkpt>
      <trkpt lat="51.217083457322" lon="4.47896298047">
        <ele>0</ele>
        <time>2020-07-28T18:56:49Z</time>
      </trkpt>
      <trkpt lat="51.217071638843" lon="4.478233084618">
        <ele>0</ele>
        <time>2020-07-28T18:57:20Z</time>
      </trkpt>
      <trkpt lat="51.21707608125" lon="4.477496483246">
        <ele>0</ele>
        <time>2020-07-28T18:57:36Z</time>
      </trkpt>
      <trkpt lat="51.217122516976" lon="4.477174953562">
        <ele>0</ele>
        <time>2020-07-28T18:57:55Z</time>
      </trkpt>
      <trkpt lat="51.217219663197" lon="4.476475567826">
        <ele>0</ele>
        <time>2020-07-28T18:58:30Z</time>
      </trkpt>
      <trkpt lat="51.217270457511" lon="4.475762268136">
        <ele>0</ele>
        <time>2020-07-28T18:59:12Z</time>
      </trkpt>
      <trkpt lat="51.217292921003" lon="4.475037066148">
        <ele>0</ele>
        <time>2020-07-28T18:59:57Z</time>
      </trkpt>
      <trkpt lat="51.217331896838" lon="4.474317228576">
        <ele>0</ele>
        <time>2020-07-28T19:00:37Z</time>
      </trkpt>
      <trkpt lat="51.217336590702" lon="4.47359772628">
        <ele>1.8</ele>
        <time>2020-07-28T19:01:14Z</time>
      </trkpt>
      <trkpt lat="51.217382607333" lon="4.472877134337">
        <ele>0</ele>
        <time>2020-07-28T19:01:55Z</time>
      </trkpt>
      <trkpt lat="51.217388809939" lon="4.472158973145">
        <ele>1</ele>
        <time>2020-07-28T19:02:40Z</time>
      </trkpt>
      <trkpt lat="51.217435413303" lon="4.471438381202">
        <ele>9</ele>
        <time>2020-07-28T19:03:26Z</time>
      </trkpt>
      <trkpt lat="51.217442286461" lon="4.470706306056">
        <ele>1.6</ele>
        <time>2020-07-28T19:04:09Z</time>
      </trkpt>
      <trkpt lat="51.217442286461" lon="4.469987055217">
        <ele>0</ele>
        <time>2020-07-28T19:04:53Z</time>
      </trkpt>
      <trkpt lat="51.217476316975" lon="4.469265457446">
        <ele>0</ele>
        <time>2020-07-28T19:05:35Z</time>
      </trkpt>
      <trkpt lat="51.217501378856" lon="4.468915345483">
        <ele>0</ele>
        <time>2020-07-28T19:05:55Z</time>
      </trkpt>
      <trkpt lat="51.217499199562" lon="4.468582332596">
        <ele>0</ele>
        <time>2020-07-28T19:07:04Z</time>
      </trkpt>
      <trkpt lat="51.217398868219" lon="4.468488622954">
        <ele>0</ele>
        <time>2020-07-28T19:10:18Z</time>
      </trkpt>
      <trkpt lat="51.217403310626" lon="4.46849063461">
        <ele>0</ele>
        <time>2020-07-28T19:10:19Z</time>
      </trkpt>
      <trkpt lat="51.217427534317" lon="4.468544781684">
        <ele>0</ele>
        <time>2020-07-28T19:10:25Z</time>
      </trkpt>
      <trkpt lat="51.217355701434" lon="4.469012072609">
        <ele>0</ele>
        <time>2020-07-28T19:11:07Z</time>
      </trkpt>
      <trkpt lat="51.217303566016" lon="4.469060352353">
        <ele>0</ele>
        <time>2020-07-28T19:11:14Z</time>
      </trkpt>
      <trkpt lat="51.217182950475" lon="4.469180045885">
        <ele>0</ele>
        <time>2020-07-28T19:11:31Z</time>
      </trkpt>
      <trkpt lat="51.216833928159" lon="4.469498474266">
        <ele>0</ele>
        <time>2020-07-28T19:12:34Z</time>
      </trkpt>
      <trkpt lat="51.217005338014" lon="4.469309965335">
        <ele>0</ele>
        <time>2020-07-28T19:13:08Z</time>
      </trkpt>
      <trkpt lat="51.217215053152" lon="4.469033111178">
        <ele>0.8</ele>
        <time>2020-07-28T19:13:46Z</time>
      </trkpt>
      <trkpt lat="51.217302141093" lon="4.468943592486">
        <ele>3</ele>
        <time>2020-07-28T19:13:58Z</time>
      </trkpt>
      <trkpt lat="51.217473718586" lon="4.468842758229">
        <ele>1</ele>
        <time>2020-07-28T19:14:42Z</time>
      </trkpt>
      <trkpt lat="51.217492494042" lon="4.468872765431">
        <ele>1</ele>
        <time>2020-07-28T19:14:45Z</time>
      </trkpt>
      <trkpt lat="51.217574217567" lon="4.468227610588">
        <ele>0</ele>
        <time>2020-07-28T19:16:20Z</time>
      </trkpt>
      <trkpt lat="51.217582683286" lon="4.467948912413">
        <ele>0</ele>
        <time>2020-07-28T19:18:12Z</time>
      </trkpt>
      <trkpt lat="51.217567176771" lon="4.468391141457">
        <ele>0</ele>
        <time>2020-07-28T19:19:15Z</time>
      </trkpt>
      <trkpt lat="51.217538426854" lon="4.468575627076">
        <ele>0</ele>
        <time>2020-07-28T19:19:34Z</time>
      </trkpt>
      <trkpt lat="51.217488638368" lon="4.468632456358">
        <ele>0</ele>
        <time>2020-07-28T19:20:18Z</time>
      </trkpt>
      <trkpt lat="51.217488135454" lon="4.468450652947">
        <ele>0</ele>
        <time>2020-07-28T19:20:40Z</time>
      </trkpt>
      <trkpt lat="51.217513029697" lon="4.46854846972">
        <ele>0</ele>
        <time>2020-07-28T19:22:05Z</time>
      </trkpt>
      <trkpt lat="51.2174490758" lon="4.468680987559">
        <ele>0</ele>
        <time>2020-07-28T19:23:28Z</time>
      </trkpt>
      <trkpt lat="51.217307505509" lon="4.468149910375">
        <ele>0</ele>
        <time>2020-07-28T19:25:02Z</time>
      </trkpt>
      <trkpt lat="51.217295267935" lon="4.468075898198">
        <ele>0</ele>
        <time>2020-07-28T19:26:17Z</time>
      </trkpt>
      <trkpt lat="51.217322676748" lon="4.468138930086">
        <ele>0</ele>
        <time>2020-07-28T19:26:24Z</time>
      </trkpt>
      <trkpt lat="51.217511604774" lon="4.468723399973">
        <ele>0</ele>
        <time>2020-07-28T19:27:29Z</time>
      </trkpt>
      <trkpt lat="51.217511856231" lon="4.468750641148">
        <ele>0</ele>
        <time>2020-07-28T19:28:33Z</time>
      </trkpt>
      <trkpt lat="51.217524596719" lon="4.468666403053">
        <ele>0</ele>
        <time>2020-07-28T19:29:09Z</time>
      </trkpt>
      <trkpt lat="51.217528284755" lon="4.468633378367">
        <ele>0</ele>
        <time>2020-07-28T19:29:12Z</time>
      </trkpt>
      <trkpt lat="51.217528117117" lon="4.468637736955">
        <ele>0</ele>
        <time>2020-07-28T19:29:57Z</time>
      </trkpt>
      <trkpt lat="51.217535912284" lon="4.468576632904">
        <ele>0</ele>
        <time>2020-07-28T19:30:03Z</time>
      </trkpt>
      <trkpt lat="51.217538343035" lon="4.468546122788">
        <ele>0</ele>
        <time>2020-07-28T19:30:06Z</time>
      </trkpt>
      <trkpt lat="51.217541863433" lon="4.468515947948">
        <ele>0</ele>
        <time>2020-07-28T19:30:09Z</time>
      </trkpt>
      <trkpt lat="51.217539684139" lon="4.468579650388">
        <ele>0</ele>
        <time>2020-07-28T19:31:36Z</time>
      </trkpt>
      <trkpt lat="51.217528368574" lon="4.468608735581">
        <ele>0</ele>
        <time>2020-07-28T19:31:48Z</time>
      </trkpt>
      <trkpt lat="51.217538594492" lon="4.468448641291">
        <ele>0</ele>
        <time>2020-07-28T19:32:04Z</time>
      </trkpt>
      <trkpt lat="51.217545802926" lon="4.468225934208">
        <ele>0</ele>
        <time>2020-07-28T19:33:27Z</time>
      </trkpt>
      <trkpt lat="51.217519232303" lon="4.468716275358">
        <ele>0</ele>
        <time>2020-07-28T19:34:45Z</time>
      </trkpt>
      <trkpt lat="51.21752116014" lon="4.468800848729">
        <ele>0</ele>
        <time>2020-07-28T19:34:52Z</time>
      </trkpt>
      <trkpt lat="51.217519651398" lon="4.469512807315">
        <ele>0</ele>
        <time>2020-07-28T19:35:59Z</time>
      </trkpt>
      <trkpt lat="51.217452512379" lon="4.470221916055">
        <ele>0</ele>
        <time>2020-07-28T19:37:01Z</time>
      </trkpt>
      <trkpt lat="51.217455362225" lon="4.470943430007">
        <ele>0.2</ele>
        <time>2020-07-28T19:38:10Z</time>
      </trkpt>
      <trkpt lat="51.217467013066" lon="4.47165564005">
        <ele>0</ele>
        <time>2020-07-28T19:39:16Z</time>
      </trkpt>
      <trkpt lat="51.21739375526" lon="4.472381847866">
        <ele>2.2</ele>
        <time>2020-07-28T19:40:28Z</time>
      </trkpt>
      <trkpt lat="51.217370872673" lon="4.472793231518">
        <ele>0.6</ele>
        <time>2020-07-28T19:41:05Z</time>
      </trkpt>
      <trkpt lat="51.217356707262" lon="4.472925665538">
        <ele>0</ele>
        <time>2020-07-28T19:41:34Z</time>
      </trkpt>
      <trkpt lat="51.217342877127" lon="4.473635277192">
        <ele>0</ele>
        <time>2020-07-28T19:43:05Z</time>
      </trkpt>
      <trkpt lat="51.21731999454" lon="4.474340530258">
        <ele>0</ele>
        <time>2020-07-28T19:44:11Z</time>
      </trkpt>
      <trkpt lat="51.217280012877" lon="4.475042095288">
        <ele>0</ele>
        <time>2020-07-28T19:45:20Z</time>
      </trkpt>
      <trkpt lat="51.217288562415" lon="4.475282907275">
        <ele>0</ele>
        <time>2020-07-28T19:45:39Z</time>
      </trkpt>
      <trkpt lat="51.21724539563" lon="4.475916662734">
        <ele>0</ele>
        <time>2020-07-28T19:46:31Z</time>
      </trkpt>
      <trkpt lat="51.217219495559" lon="4.476631387347">
        <ele>1.2</ele>
        <time>2020-07-28T19:47:33Z</time>
      </trkpt>
      <trkpt lat="51.217164175019" lon="4.477339322621">
        <ele>2.2</ele>
        <time>2020-07-28T19:48:33Z</time>
      </trkpt>
      <trkpt lat="51.217179094801" lon="4.478060417478">
        <ele>0</ele>
        <time>2020-07-28T19:49:33Z</time>
      </trkpt>
      <trkpt lat="51.217127546116" lon="4.478767430743">
        <ele>0</ele>
        <time>2020-07-28T19:50:29Z</time>
      </trkpt>
      <trkpt lat="51.217118074569" lon="4.478940516978">
        <ele>0</ele>
        <time>2020-07-28T19:50:42Z</time>
      </trkpt>
      <trkpt lat="51.217095611077" lon="4.479660941283">
        <ele>0</ele>
        <time>2020-07-28T19:51:32Z</time>
      </trkpt>
      <trkpt lat="51.21705680288" lon="4.48020350167">
        <ele>0</ele>
        <time>2020-07-28T19:52:14Z</time>
      </trkpt>
      <trkpt lat="51.217031321904" lon="4.480730220266">
        <ele>1.4</ele>
        <time>2020-07-28T19:52:54Z</time>
      </trkpt>
      <trkpt lat="51.216971978052" lon="4.481410579089">
        <ele>0</ele>
        <time>2020-07-28T19:53:46Z</time>
      </trkpt>
      <trkpt lat="51.216579286037" lon="4.481420721188">
        <ele>2.6</ele>
        <time>2020-07-28T19:54:20Z</time>
      </trkpt>
      <trkpt lat="51.216432267511" lon="4.481381661534">
        <ele>0</ele>
        <time>2020-07-28T19:55:44Z</time>
      </trkpt>
    </trkseg>
  </trk>
</gpx>